Home > Products > Valid Products > TAF

000
FTUS45 KMSO 281720
TAFBTM
TAF
KBTM 281720Z 2818/2918 18006KT P6SM SKC=



000
FTUS45 KMSO 281720
TAFGPI
TAF
KGPI 281720Z 2818/2918 VRB04KT P6SM SKC
     FM282000 16006KT P6SM SCT250
     FM290800 19010KT P6SM SCT120=



000
FTUS45 KMSO 281720
TAFBTM
TAF
KBTM 281720Z 2818/2918 18006KT P6SM SKC=



000
FTUS45 KMSO 281720
TAFMSO
TAF
KMSO 281720Z 2818/2918 VRB05KT P6SM SKC
     FM291500 30009KT P6SM SCT120=



000
FTUS45 KMSO 281720
TAFMSO
TAF
KMSO 281720Z 2818/2918 VRB05KT P6SM SKC
     FM291500 30009KT P6SM SCT120=



000
FTUS45 KMSO 281720
TAFSMN
TAF
KSMN 281720Z 2818/2918 23006KT P6SM SKC
      AMD LTD TO CLD VIS AND WIND=



000
FTUS45 KMSO 281720
TAFGPI
TAF
KGPI 281720Z 2818/2918 VRB04KT P6SM SKC
     FM282000 16006KT P6SM SCT250
     FM290800 19010KT P6SM SCT120=



000
FTUS45 KMSO 281720
TAFSMN
TAF
KSMN 281720Z 2818/2918 23006KT P6SM SKC
      AMD LTD TO CLD VIS AND WIND=



000
FTUS45 KMSO 281120
TAFGPI
TAF
KGPI 281120Z 2812/2912 00000KT P6SM SKC
     FM281700 16009KT P6SM SKC=



000
FTUS45 KMSO 281120
TAFSMN
TAF
KSMN 281120Z 2812/2912 VRB03KT P6SM SKC
     FM281800 23006KT P6SM SKC
      AMD LTD TO CLD VIS AND WIND=



000
FTUS45 KMSO 281120
TAFBTM
TAF
KBTM 281120Z 2812/2912 30006KT P6SM SKC
     FM281800 18006KT P6SM SKC=



000
FTUS45 KMSO 281120
TAFGPI
TAF
KGPI 281120Z 2812/2912 00000KT P6SM SKC
     FM281700 16009KT P6SM SKC=



000
FTUS45 KMSO 281120
TAFMSO
TAF
KMSO 281120Z 2812/2912 VRB03KT P6SM SKC=



000
FTUS45 KMSO 281120
TAFBTM
TAF
KBTM 281120Z 2812/2912 30006KT P6SM SKC
     FM281800 18006KT P6SM SKC=



000
FTUS45 KMSO 281120
TAFSMN
TAF
KSMN 281120Z 2812/2912 VRB03KT P6SM SKC
     FM281800 23006KT P6SM SKC
      AMD LTD TO CLD VIS AND WIND=



000
FTUS45 KMSO 281120
TAFMSO
TAF
KMSO 281120Z 2812/2912 VRB03KT P6SM SKC=



000
FTUS45 KMSO 280520
TAFSMN
TAF
KSMN 280520Z 2806/2906 VRB03KT P6SM SKC
     FM281800 23006KT P6SM SKC
      AMD LTD TO CLD VIS AND WIND=



000
FTUS45 KMSO 280520
TAFMSO
TAF
KMSO 280520Z 2806/2906 VRB03KT P6SM SKC=



000
FTUS45 KMSO 280520
TAFGPI
TAF
KGPI 280520Z 2806/2906 00000KT P6SM SKC
     FM281700 16009KT P6SM SKC=



000
FTUS45 KMSO 280520
TAFBTM
TAF
KBTM 280520Z 2806/2906 30006KT P6SM SKC
     FM281800 18006KT P6SM SKC=



000
FTUS45 KMSO 280520
TAFGPI
TAF
KGPI 280520Z 2806/2906 00000KT P6SM SKC
     FM281700 16009KT P6SM SKC=



000
FTUS45 KMSO 280520
TAFBTM
TAF
KBTM 280520Z 2806/2906 30006KT P6SM SKC
     FM281800 18006KT P6SM SKC=



000
FTUS45 KMSO 280520
TAFSMN
TAF
KSMN 280520Z 2806/2906 VRB03KT P6SM SKC
     FM281800 23006KT P6SM SKC
      AMD LTD TO CLD VIS AND WIND=



000
FTUS45 KMSO 280520
TAFMSO
TAF
KMSO 280520Z 2806/2906 VRB03KT P6SM SKC=



000
FTUS45 KMSO 272320
TAFSMN
TAF
KSMN 272320Z 2800/2824 34003KT P6SM SKC
      AMD LTD TO CLD VIS AND WIND=



000
FTUS45 KMSO 272320
TAFGPI
TAF
KGPI 272320Z 2800/2824 16010KT P6SM SKC=



000
FTUS45 KMSO 272320
TAFBTM
TAF
KBTM 272320Z 2800/2824 30006KT P6SM SKC=



000
FTUS45 KMSO 272320
TAFMSO
TAF
KMSO 272320Z 2800/2824 31005KT P6SM SKC=



000
FTUS45 KMSO 272320
TAFGPI
TAF
KGPI 272320Z 2800/2824 16010KT P6SM SKC=



000
FTUS45 KMSO 272320
TAFBTM
TAF
KBTM 272320Z 2800/2824 30006KT P6SM SKC=



000
FTUS45 KMSO 272320
TAFMSO
TAF
KMSO 272320Z 2800/2824 31005KT P6SM SKC=



000
FTUS45 KMSO 272320
TAFSMN
TAF
KSMN 272320Z 2800/2824 34003KT P6SM SKC
      AMD LTD TO CLD VIS AND WIND=



000
FTUS45 KMSO 271720
TAFMSO
TAF
KMSO 271720Z 2718/2818 31005KT P6SM SKC=



000
FTUS45 KMSO 271720
TAFSMN
TAF
KSMN 271720Z 2718/2818 34003KT P6SM SKC
      AMD LTD TO CLD VIS AND WIND=



000
FTUS45 KMSO 271720
TAFBTM
TAF
KBTM 271720Z 2718/2818 30006KT P6SM SKC=



000
FTUS45 KMSO 271720
TAFGPI
TAF
KGPI 271720Z 2718/2818 16010KT P6SM SKC=



000
FTUS45 KMSO 271720
TAFBTM
TAF
KBTM 271720Z 2718/2818 30006KT P6SM SKC=



000
FTUS45 KMSO 271720
TAFMSO
TAF
KMSO 271720Z 2718/2818 31005KT P6SM SKC=



000
FTUS45 KMSO 271720
TAFGPI
TAF
KGPI 271720Z 2718/2818 16010KT P6SM SKC=



000
FTUS45 KMSO 271720
TAFSMN
TAF
KSMN 271720Z 2718/2818 34003KT P6SM SKC
      AMD LTD TO CLD VIS AND WIND=



000
FTUS45 KMSO 271502 AAC
TAFMSO
TAF AMD
KMSO 271502Z 2715/2812 VRB03KT P6SM SCT009 BKN020
     FM271630 32006KT P6SM SKC=



000
FTUS45 KMSO 271400 AAB
TAFGPI
TAF AMD
KGPI 271400Z 2714/2812 00000KT 2SM BR SCT001
     FM271430 VRB03KT P6SM SKC
     FM271800 16007KT P6SM FEW060=



000
FTUS45 KMSO 271400 AAB
TAFGPI
TAF AMD
KGPI 271400Z 2714/2812 00000KT 2SM BR SCT001
     FM271430 VRB03KT P6SM SKC
     FM271800 16007KT P6SM FEW060=



000
FTUS45 KMSO 271333 AAB
TAFMSO
TAF AMD
KMSO 271333Z 2714/2812 00000KT P6SM VCFG SCT001 OVC009
     FM271500 VRB03KT P6SM SCT010
     FM272000 32006KT P6SM SKC=



000
FTUS45 KMSO 271326 AAA
TAFGPI
TAF AMD
KGPI 271326Z 2713/2812 00000KT 2SM BR SCT002
      TEMPO 2713/2715 1/4SM FZFG VV001
     FM271500 VRB03KT P6SM SCT006
     FM271800 16007KT P6SM FEW060=



000
FTUS45 KMSO 271326 AAA
TAFGPI
TAF AMD
KGPI 271326Z 2713/2812 00000KT 2SM BR SCT002
      TEMPO 2713/2715 1/4SM FZFG VV001
     FM271500 VRB03KT P6SM SCT006
     FM271800 16007KT P6SM FEW060=



000
FTUS45 KMSO 271120
TAFGPI
TAF
KGPI 271120Z 2712/2812 00000KT 4SM MIFG SKC
      TEMPO 2712/2715 3/4SM BR VV001
     FM271500 VRB03KT P6SM SCT006
     FM271800 16007KT P6SM FEW060=



000
FTUS45 KMSO 271120
TAFMSO
TAF
KMSO 271120Z 2712/2812 00000KT P6SM VCFG SCT001 BKN013
     FM271500 VRB03KT P6SM SKC
     FM272000 32006KT P6SM SKC=



000
FTUS45 KMSO 271120
TAFSMN
TAF
KSMN 271120Z 2712/2812 00000KT P6SM VCFG SCT001
     FM271600 VRB03KT P6SM SKC
      AMD LTD TO CLD VIS AND WIND=



000
FTUS45 KMSO 271120
TAFBTM
TAF
KBTM 271120Z 2712/2812 VRB03KT P6SM VCFG SCT001 SCT030
     FM271500 VRB04KT P6SM SKC=



000
FTUS45 KMSO 270931 AAA
TAFGPI
TAF AMD
KGPI 270931Z 2710/2806 VRB03KT 4SM MIFG SKC
     FM271500 VRB03KT P6SM SCT006
     FM271800 16007KT P6SM FEW060=



000
FTUS45 KMSO 270929 AAA
TAFMSO
TAF AMD
KMSO 270929Z 2709/2806 VRB04KT P6SM OVC013
     FM271100 00000KT P6SM VCFG SCT001 BKN013
     FM271400 VRB03KT P6SM SKC
     FM272000 32006KT P6SM SKC=



000
FTUS45 KMSO 270520
TAFBTM
TAF
KBTM 270520Z 2706/2806 VRB03KT P6SM SCT030
     FM270900 VRB03KT P6SM VCFG SCT001 SCT030
     FM271500 VRB04KT P6SM SKC=



000
FTUS45 KMSO 270520
TAFSMN
TAF
KSMN 270520Z 2706/2806 VRB06KT P6SM SCT060
     FM271000 00000KT 6SM BR SCT001
     FM271600 VRB03KT P6SM SKC
      AMD LTD TO CLD VIS AND WIND=



000
FTUS45 KMSO 270520
TAFMSO
TAF
KMSO 270520Z 2706/2806 VRB04KT P6SM BKN090
     FM271100 00000KT P6SM VCFG SCT001
     FM271400 VRB03KT P6SM SKC
     FM272000 32006KT P6SM SKC=



000
FTUS45 KMSO 270520
TAFGPI
TAF
KGPI 270520Z 2706/2806 VRB03KT P6SM FEW060
     FM271800 16007KT P6SM FEW060=



000
FTUS45 KMSO 270520
TAFMSO
TAF
KMSO 270520Z 2706/2806 VRB04KT P6SM BKN090
     FM271100 00000KT P6SM VCFG SCT001
     FM271400 VRB03KT P6SM SKC
     FM272000 32006KT P6SM SKC=



000
FTUS45 KMSO 270520
TAFBTM
TAF
KBTM 270520Z 2706/2806 VRB03KT P6SM SCT030
     FM270900 VRB03KT P6SM VCFG SCT001 SCT030
     FM271500 VRB04KT P6SM SKC=



000
FTUS45 KMSO 270520
TAFSMN
TAF
KSMN 270520Z 2706/2806 VRB06KT P6SM SCT060
     FM271000 00000KT 6SM BR SCT001
     FM271600 VRB03KT P6SM SKC
      AMD LTD TO CLD VIS AND WIND=



000
FTUS45 KMSO 270520
TAFGPI
TAF
KGPI 270520Z 2706/2806 VRB03KT P6SM FEW060
     FM271800 16007KT P6SM FEW060=



000
FTUS45 KMSO 270308 AAB
TAFMSO
TAF AMD
KMSO 270308Z 2703/2724 09008KT P6SM VCSH SCT030 BKN040
      TEMPO 2703/2704 6SM -RA
     FM270400 VRB04KT P6SM FEW080=



000
FTUS45 KMSO 270308 AAB
TAFMSO
TAF AMD
KMSO 270308Z 2703/2724 09008KT P6SM VCSH SCT030 BKN040
      TEMPO 2703/2704 6SM -RA
     FM270400 VRB04KT P6SM FEW080=



000
FTUS45 KMSO 270217 AAA
TAFMSO
TAF AMD
KMSO 270217Z 2702/2724 VRB06KT P6SM VCSH SCT030 BKN050
      TEMPO 2702/2703 6SM -RA
     FM270300 VRB04KT P6SM FEW080=



000
FTUS45 KMSO 262320
TAFMSO
TAF
KMSO 262320Z 2700/2724 VRB06KT P6SM VCSH FEW030 BKN080
     FM270300 VRB04KT P6SM FEW080=



000
FTUS45 KMSO 262320
TAFMSO
TAF
KMSO 262320Z 2700/2724 VRB06KT P6SM VCSH FEW030 BKN080
     FM270300 VRB04KT P6SM FEW080=



000
FTUS45 KMSO 262320
TAFSMN
TAF
KSMN 262320Z 2700/2724 35010KT P6SM SCT060 OVC080
     FM270300 VRB06KT P6SM SCT060
     FM271000 00000KT 6SM BR SCT001
     FM271600 VRB03KT P6SM SKC
      AMD LTD TO CLD VIS AND WIND=



000
FTUS45 KMSO 262320
TAFGPI
TAF
KGPI 262320Z 2700/2724 20007KT P6SM VCSH SCT060 BKN100
     FM270300 VRB03KT P6SM FEW060=



000
FTUS45 KMSO 262320
TAFSMN
TAF
KSMN 262320Z 2700/2724 35010KT P6SM SCT060 OVC080
     FM270300 VRB06KT P6SM SCT060
     FM271000 00000KT 6SM BR SCT001
     FM271600 VRB03KT P6SM SKC
      AMD LTD TO CLD VIS AND WIND=



000
FTUS45 KMSO 262320
TAFBTM
TAF
KBTM 262320Z 2700/2724 30007KT P6SM VCSH FEW030 BKN040
     FM270900 VRB03KT P6SM VCFG SCT001
     FM271500 VRB04KT P6SM SKC=



000
FTUS45 KMSO 262320
TAFGPI
TAF
KGPI 262320Z 2700/2724 20007KT P6SM VCSH SCT060 BKN100
     FM270300 VRB03KT P6SM FEW060=



000
FTUS45 KMSO 262320
TAFBTM
TAF
KBTM 262320Z 2700/2724 30007KT P6SM VCSH FEW030 BKN040
     FM270900 VRB03KT P6SM VCFG SCT001
     FM271500 VRB04KT P6SM SKC=



000
FTUS45 KMSO 261723
TAFSMN
TAF
KSMN 261723Z 2618/2718 VRB03KT P6SM BKN050 OVC070
     FM262100 36010KT P6SM BKN060 OVC080
     FM270300 VRB04KT P6SM SCT060
     FM271000 VRB03KT 6SM BR SCT001
      AMD LTD TO CLD VIS AND WIND=



000
FTUS45 KMSO 261723
TAFGPI
TAF
KGPI 261723Z 2618/2718 02006KT P6SM SCT100 BKN120
     FM262000 15006KT P6SM SCT100
     FM270200 VRB03KT P6SM SKC=



000
FTUS45 KMSO 261723
TAFMSO
TAF
KMSO 261723Z 2618/2718 33005KT P6SM -RA BKN025 OVC035
     FM262000 33006KT P6SM VCSH SCT030 OVC040
     FM262200 30010KT P6SM BKN060
     FM270300 VRB04KT P6SM SKC=



000
FTUS45 KMSO 261723
TAFBTM
TAF
KBTM 261723Z 2618/2718 30005KT 5SM -SN BR BKN022 OVC030
     FM262000 33007KT P6SM -SHSN BKN025 BKN035
     FM262200 VRB04KT P6SM VCSH BKN040
     FM270900 VRB03KT P6SM VCFG SCT001=



000
FTUS45 KMSO 261723
TAFSMN
TAF
KSMN 261723Z 2618/2718 VRB03KT P6SM BKN050 OVC070
     FM262100 36010KT P6SM BKN060 OVC080
     FM270300 VRB04KT P6SM SCT060
     FM271000 VRB03KT 6SM BR SCT001
      AMD LTD TO CLD VIS AND WIND=



000
FTUS45 KMSO 261723
TAFGPI
TAF
KGPI 261723Z 2618/2718 02006KT P6SM SCT100 BKN120
     FM262000 15006KT P6SM SCT100
     FM270200 VRB03KT P6SM SKC=



000
FTUS45 KMSO 261723
TAFBTM
TAF
KBTM 261723Z 2618/2718 30005KT 5SM -SN BR BKN022 OVC030
     FM262000 33007KT P6SM -SHSN BKN025 BKN035
     FM262200 VRB04KT P6SM VCSH BKN040
     FM270900 VRB03KT P6SM VCFG SCT001=



000
FTUS45 KMSO 261723
TAFMSO
TAF
KMSO 261723Z 2618/2718 33005KT P6SM -RA BKN025 OVC035
     FM262000 33006KT P6SM VCSH SCT030 OVC040
     FM262200 30010KT P6SM BKN060
     FM270300 VRB04KT P6SM SKC=



000
FTUS45 KMSO 261604 AAB
TAFMSO
TAF AMD
KMSO 261604Z 2616/2712 33007KT P6SM -RA OVC018
     FM261800 33006KT P6SM VCSH OVC050
     FM262200 30010KT P6SM OVC050
     FM270300 VRB04KT P6SM SKC=



000
FTUS45 KMSO 261604 AAB
TAFMSO
TAF AMD
KMSO 261604Z 2616/2712 33007KT P6SM -RA OVC018
     FM261800 33006KT P6SM VCSH OVC050
     FM262200 30010KT P6SM OVC050
     FM270300 VRB04KT P6SM SKC=



000
FTUS45 KMSO 261603 AAA
TAFBTM
TAF AMD
KBTM 261603Z 2616/2712 30005KT 2SM -SN BR OVC012
     FM261800 30006KT 3SM -SN BR OVC020
     FM261900 33007KT P6SM -SHSNRA BKN030
     FM270100 VRB04KT P6SM BKN050
     FM270900 VRB03KT P6SM VCFG SCT001=



000
FTUS45 KMSO 261602 AAA
TAFSMN
TAF AMD
KSMN 261602Z 2616/2712 VRB03KT P6SM OVC050
     FM270300 VRB04KT P6SM SCT060
     FM271000 VRB03KT 6SM BR SCT001
      AMD LTD TO CLD VIS AND WIND=



000
FTUS45 KMSO 261126
TAFSMN
TAF
KSMN 261126Z 2612/2712 VRB03KT P6SM VCSH BKN020 OVC040
     FM261400 01008KT P6SM VCSH BKN030 OVC050
     FM261800 01012KT P6SM OVC050
     FM270300 VRB04KT P6SM SCT060
     FM271000 VRB03KT 6SM BR SCT001
      AMD LTD TO CLD VIS AND WIND=



000
FTUS45 KMSO 261126
TAFMSO
TAF
KMSO 261126Z 2612/2712 33007KT P6SM -RA OVC030
     FM261700 33006KT P6SM VCSH OVC050
     FM262200 30010KT P6SM OVC050
     FM270300 VRB04KT P6SM SKC=



000
FTUS45 KMSO 261126
TAFGPI
TAF
KGPI 261126Z 2612/2712 01011KT P6SM BKN050
     FM261800 15006KT P6SM SCT050 BKN100
     FM270200 VRB03KT P6SM SKC=



000
FTUS45 KMSO 261126
TAFBTM
TAF
KBTM 261126Z 2612/2712 30005KT 2SM -SN BR OVC010
     FM261600 30006KT 3SM -SN BR OVC020
     FM261900 33007KT P6SM -SHSNRA BKN030
     FM270100 VRB04KT P6SM BKN050
     FM270900 VRB03KT P6SM VCFG SCT001=



000
FTUS45 KMSO 260528
TAFGPI
TAF
KGPI 260528Z 2606/2706 02010KT P6SM OVC050
     FM261700 14005KT P6SM OVC050=



000
FTUS45 KMSO 260528
TAFSMN
TAF
KSMN 260528Z 2606/2706 21008KT 6SM -SHRA BR OVC030
     FM260700 21010KT 4SM -SNRA BR OVC020
     FM261400 01008KT P6SM VCSH OVC050
     FM261800 01012KT P6SM OVC050
     FM270300 VRB04KT P6SM SCT060
      AMD LTD TO CLD VIS AND WIND=



000
FTUS45 KMSO 260528
TAFBTM
TAF
KBTM 260528Z 2606/2706 VRB05KT 5SM -SHRASN BKN030 OVC040
     FM260800 02007KT 3SM -SN BR BKN020 OVC030
     FM260900 02008KT 2SM -SN BR OVC010
     FM261600 02006KT 3SM -SN BR OVC020
     FM261900 33007KT 6SM -SHSNRA BR BKN030=



000
FTUS45 KMSO 260528
TAFMSO
TAF
KMSO 260528Z 2606/2706 32008KT P6SM VCSH OVC060
     FM260900 33006KT 6SM -SHRA BR BKN030 OVC040
     FM261100 33007KT 5SM -SHRASN BR BKN020 OVC030
     FM261400 33008KT 6SM -SHRA BR BKN030 OVC040
     FM261600 33006KT P6SM VCSH BKN050=



000
FTUS45 KMSO 260402 AAB
TAFSMN
TAF AMD
KSMN 260402Z 2604/2624 35010KT 6SM -SHRA BR OVC035
     FM260700 35010KT 4SM -SNRA BR OVC020
     FM261600 02008KT P6SM VCSH BKN050
      AMD LTD TO CLD VIS AND WIND=



000
FTUS45 KMSO 260139 AAA
TAFSMN
TAF AMD
KSMN 260139Z 2602/2624 22006KT P6SM VCSH OVC050
     FM260400 35010KT 6SM -SHRA BR OVC025
     FM260700 35010KT 4SM -SNRA BR OVC020
     FM261600 02008KT P6SM VCSH BKN050
      AMD LTD TO CLD VIS AND WIND=



000
FTUS45 KMSO 260137 AAA
TAFBTM
TAF AMD
KBTM 260137Z 2602/2624 27008KT P6SM VCSH SCT030 OVC050
     FM260400 09008KT 5SM -SHRASN BKN030 OVC040
     FM261000 02008KT 2SM -SN BR BKN010 OVC020
     FM261900 33007KT 5SM -SHSNRA BR BKN030=



000
FTUS45 KMSO 252326
TAFBTM
TAF
KBTM 252326Z 2600/2624 24008KT 6SM -SHRA SCT030 OVC040
     FM260400 09008KT 5SM -SHSN BKN030 OVC040
     FM261000 02008KT 2SM -SN BR BKN010 OVC020
     FM261900 33007KT 5SM -SHSNRA BR BKN030=



000
FTUS45 KMSO 252326
TAFMSO
TAF
KMSO 252326Z 2600/2624 32008KT P6SM VCSH BKN100
     FM260600 33008KT P6SM -SHRA OVC035
     FM261000 34006KT 5SM -SHSNRA BKN015 OVC030
     FM261500 34008KT 6SM -SHRA BKN030
     FM261800 33006KT P6SM VCSH BKN050=



000
FTUS45 KMSO 252326
TAFGPI
TAF
KGPI 252326Z 2600/2624 21007KT P6SM VCSH SCT050 BKN100
     FM260600 02011KT P6SM VCSH OVC050
     FM260900 02010KT P6SM VCSH OVC030
     FM261700 VRB03KT P6SM VCSH OVC050=



000
FTUS45 KMSO 252326
TAFMSO
TAF
KMSO 252326Z 2600/2624 32008KT P6SM VCSH BKN100
     FM260600 33008KT P6SM -SHRA OVC035
     FM261000 34006KT 5SM -SHSNRA BKN015 OVC030
     FM261500 34008KT 6SM -SHRA BKN030
     FM261800 33006KT P6SM VCSH BKN050=



000
FTUS45 KMSO 252326
TAFSMN
TAF
KSMN 252326Z 2600/2624 35006KT P6SM -SHRA OVC050
     FM260400 35010KT 6SM -SHRA BR OVC025
     FM260600 35010KT 4SM -SNRA BR OVC020
     FM261600 02008KT P6SM VCSH BKN050
      AMD LTD TO CLD VIS AND WIND=



000
FTUS45 KMSO 252326
TAFSMN
TAF
KSMN 252326Z 2600/2624 35006KT P6SM -SHRA OVC050
     FM260400 35010KT 6SM -SHRA BR OVC025
     FM260600 35010KT 4SM -SNRA BR OVC020
     FM261600 02008KT P6SM VCSH BKN050
      AMD LTD TO CLD VIS AND WIND=



000
FTUS45 KMSO 252326
TAFGPI
TAF
KGPI 252326Z 2600/2624 21007KT P6SM VCSH SCT050 BKN100
     FM260600 02011KT P6SM VCSH OVC050
     FM260900 02010KT P6SM VCSH OVC030
     FM261700 VRB03KT P6SM VCSH OVC050=



000
FTUS45 KMSO 252326
TAFBTM
TAF
KBTM 252326Z 2600/2624 24008KT 6SM -SHRA SCT030 OVC040
     FM260400 09008KT 5SM -SHSN BKN030 OVC040
     FM261000 02008KT 2SM -SN BR BKN010 OVC020
     FM261900 33007KT 5SM -SHSNRA BR BKN030=



    US Dept of Commerce
    National Oceanic and Atmospheric Administration
    National Weather Service
    1325 East West Highway
    Silver Spring, MD 20910
    Page Author: NWS Internet Services Team
Disclaimer
Information Quality
Credits
Glossary
Privacy Policy
Freedom of Information Act (FOIA)
About Us
Career Opportunities